createdAt,value
2023-01-13T00:02:44.030Z,89
2023-01-13T00:05:43.993Z,89
2023-01-13T00:08:44.005Z,89
2023-01-13T00:11:44.001Z,89
2023-01-13T00:14:43.989Z,89
2023-01-13T00:17:43.990Z,89
2023-01-13T00:20:43.985Z,89
2023-01-13T00:23:44.006Z,89
2023-01-13T00:26:44.006Z,89
2023-01-13T00:29:44.006Z,89
2023-01-13T00:32:44.005Z,89
2023-01-13T00:35:44.032Z,89
2023-01-13T00:38:44.002Z,89
2023-01-13T00:41:43.995Z,89
2023-01-13T00:44:43.991Z,89
2023-01-13T00:47:44.066Z,89
2023-01-13T00:50:44.052Z,89
2023-01-13T00:53:44.053Z,89
2023-01-13T00:56:44.064Z,89
2023-01-13T00:59:44.058Z,89
2023-01-13T01:02:44.089Z,89
2023-01-13T01:05:44.052Z,89
2023-01-13T01:08:44.047Z,89
2023-01-13T01:11:44.079Z,89
2023-01-13T01:14:44.055Z,89
2023-01-13T01:17:44.063Z,89
2023-01-13T01:20:44.048Z,89
2023-01-13T01:23:44.046Z,89
2023-01-13T01:26:44.052Z,89
2023-01-13T01:29:44.063Z,89
2023-01-13T01:32:44.044Z,89
2023-01-13T01:35:44.047Z,89
2023-01-13T01:38:44.052Z,89
2023-01-13T01:41:44.050Z,89
2023-01-13T01:44:44.055Z,89
2023-01-13T01:47:44.059Z,89
2023-01-13T01:50:44.055Z,89
2023-01-13T01:53:44.052Z,89
2023-01-13T01:56:44.054Z,89
2023-01-13T01:59:44.071Z,89
2023-01-13T02:02:44.111Z,89
2023-01-13T02:05:44.076Z,89
2023-01-13T02:08:44.055Z,89
2023-01-13T02:11:44.051Z,89
2023-01-13T02:14:44.065Z,89
2023-01-13T02:17:44.055Z,89
2023-01-13T02:20:44.053Z,89
2023-01-13T02:23:44.079Z,89
2023-01-13T02:26:44.099Z,89
2023-01-13T02:29:44.063Z,89
2023-01-13T02:32:44.051Z,89
2023-01-13T02:35:44.052Z,89
2023-01-13T02:38:44.052Z,89
2023-01-13T02:41:44.051Z,89
2023-01-13T02:44:44.065Z,89
2023-01-13T02:47:44.054Z,89
2023-01-13T02:50:44.051Z,89
2023-01-13T02:53:44.054Z,89
2023-01-13T02:56:44.056Z,89
2023-01-13T02:59:44.002Z,89
2023-01-13T03:02:44.020Z,88
2023-01-13T03:05:44.000Z,88
2023-01-13T03:08:43.978Z,88
2023-01-13T03:11:43.993Z,88
2023-01-13T03:14:43.983Z,88
2023-01-13T03:17:43.984Z,88
2023-01-13T03:20:44.041Z,88
2023-01-13T03:23:44.007Z,88
2023-01-13T03:26:43.983Z,88
2023-01-13T03:29:43.982Z,88
2023-01-13T03:32:43.992Z,88
2023-01-13T03:35:43.987Z,88
2023-01-13T03:38:43.988Z,88
2023-01-13T03:41:43.991Z,88
2023-01-13T03:44:43.989Z,88
2023-01-13T03:47:43.999Z,88
2023-01-13T03:50:43.990Z,88
2023-01-13T03:53:43.985Z,88
2023-01-13T03:56:44.008Z,88
2023-01-13T03:59:44.028Z,88
2023-01-13T04:02:44.024Z,88
2023-01-13T04:05:44.020Z,88
2023-01-13T04:08:44.022Z,88
2023-01-13T04:11:44.019Z,88
2023-01-13T04:14:44.029Z,88
2023-01-13T04:17:44.023Z,88
2023-01-13T04:20:44.032Z,88
2023-01-13T04:23:44.033Z,88
2023-01-13T04:26:44.037Z,88
2023-01-13T04:29:44.061Z,88
2023-01-13T04:32:44.046Z,88
2023-01-13T04:35:44.032Z,88
2023-01-13T04:38:44.038Z,88
2023-01-13T04:41:44.031Z,88
2023-01-13T04:44:44.029Z,88
2023-01-13T04:47:44.059Z,88
2023-01-13T04:50:44.047Z,88
2023-01-13T04:53:44.041Z,88
2023-01-13T04:56:44.031Z,88
2023-01-13T04:59:44.025Z,88
2023-01-13T05:05:44.040Z,88
2023-01-13T05:08:44.022Z,88
2023-01-13T05:11:44.029Z,88
2023-01-13T05:14:44.052Z,88
2023-01-13T05:17:44.045Z,88
2023-01-13T05:20:44.048Z,88
2023-01-13T05:23:44.035Z,88
2023-01-13T05:26:44.032Z,88
2023-01-13T05:29:44.037Z,88
2023-01-13T05:32:44.041Z,88
2023-01-13T05:35:44.054Z,88
2023-01-13T05:38:44.035Z,88
2023-01-13T05:41:44.049Z,88
2023-01-13T05:44:44.034Z,88
2023-01-13T05:47:44.045Z,88
2023-01-13T05:50:44.045Z,88
2023-01-13T05:53:44.058Z,88
2023-01-13T05:56:44.035Z,88
2023-01-13T05:59:44.053Z,88
2023-01-13T06:02:44.117Z,88
2023-01-13T06:05:44.052Z,88
2023-01-13T06:08:44.044Z,88
2023-01-13T06:11:44.082Z,88
2023-01-13T06:14:44.051Z,88
2023-01-13T06:17:44.067Z,88
2023-01-13T06:20:44.065Z,88
2023-01-13T06:23:44.057Z,88
2023-01-13T06:26:44.052Z,88
2023-01-13T06:32:44.065Z,89
2023-01-13T06:35:44.050Z,89
2023-01-13T06:38:44.052Z,89
2023-01-13T06:41:44.063Z,89
2023-01-13T06:44:44.054Z,89
2023-01-13T06:47:44.079Z,89
2023-01-13T06:50:44.051Z,89
2023-01-13T06:53:44.050Z,89
2023-01-13T06:56:44.065Z,89
2023-01-13T06:59:44.057Z,89
2023-01-13T07:05:44.069Z,89
2023-01-13T07:08:44.091Z,89
2023-01-13T07:11:44.054Z,89
2023-01-13T07:14:44.049Z,89
2023-01-13T07:17:44.073Z,89
2023-01-13T07:20:44.052Z,89
2023-01-13T07:23:44.075Z,89
2023-01-13T07:26:44.190Z,89
2023-01-13T07:29:44.051Z,89
2023-01-13T07:32:44.060Z,89
2023-01-13T07:35:44.054Z,89
2023-01-13T07:38:44.061Z,89
2023-01-13T07:41:44.058Z,89
2023-01-13T07:44:44.053Z,89
2023-01-13T07:47:44.062Z,89
2023-01-13T07:50:44.300Z,89
2023-01-13T07:53:44.056Z,89
2023-01-13T07:56:44.060Z,89
2023-01-13T08:02:44.111Z,89
2023-01-13T08:05:44.074Z,89
2023-01-13T08:08:44.082Z,89
2023-01-13T08:11:44.073Z,89
2023-01-13T08:14:44.060Z,89
2023-01-13T08:17:44.088Z,89
2023-01-13T08:20:44.065Z,89
2023-01-13T08:23:44.064Z,89
2023-01-13T08:26:44.065Z,89
2023-01-13T08:29:44.074Z,89
2023-01-13T08:35:44.065Z,89
2023-01-13T08:38:44.071Z,89
2023-01-13T08:41:44.071Z,89
2023-01-13T08:44:44.070Z,89
2023-01-13T08:47:44.141Z,89
2023-01-13T08:50:44.081Z,89
2023-01-13T08:53:44.073Z,89
2023-01-13T08:56:44.131Z,89
2023-01-13T08:59:44.071Z,89
2023-01-13T09:02:44.158Z,89
2023-01-13T09:05:44.084Z,89
2023-01-13T09:08:44.085Z,89
2023-01-13T09:11:44.095Z,89
2023-01-13T09:14:44.097Z,89
2023-01-13T09:17:44.101Z,89
2023-01-13T09:20:44.109Z,89
2023-01-13T09:23:44.097Z,89
2023-01-13T09:26:44.097Z,89
2023-01-13T09:29:44.104Z,89
2023-01-13T09:32:44.095Z,89
2023-01-13T09:35:44.096Z,89
2023-01-13T09:38:44.090Z,89
2023-01-13T09:41:44.097Z,89
2023-01-13T09:44:44.093Z,89
2023-01-13T09:47:44.112Z,89
2023-01-13T09:50:44.104Z,89
2023-01-13T09:53:44.097Z,89
2023-01-13T09:56:44.112Z,89
2023-01-13T09:59:44.108Z,89
2023-01-13T10:02:44.137Z,88
2023-01-13T10:05:44.128Z,88
2023-01-13T10:08:44.103Z,88
2023-01-13T10:11:44.113Z,88
2023-01-13T10:17:44.137Z,88
2023-01-13T10:20:44.100Z,88
2023-01-13T10:23:44.120Z,88
2023-01-13T10:26:44.106Z,88
2023-01-13T10:29:44.101Z,87
2023-01-13T10:32:44.107Z,87
2023-01-13T10:35:44.116Z,87
2023-01-13T10:38:44.113Z,87
2023-01-13T10:41:44.099Z,87
2023-01-13T10:44:44.126Z,87
2023-01-13T10:47:44.120Z,87
2023-01-13T10:50:44.113Z,87
2023-01-13T10:53:44.112Z,86
2023-01-13T10:56:44.099Z,86
2023-01-13T10:59:44.104Z,86
2023-01-13T11:02:44.144Z,86
2023-01-13T11:05:44.119Z,86
2023-01-13T11:08:44.110Z,86
2023-01-13T11:11:44.103Z,86
2023-01-13T11:14:44.119Z,85
2023-01-13T11:17:44.107Z,85
2023-01-13T11:20:44.113Z,85
2023-01-13T11:23:44.112Z,85
2023-01-13T11:26:44.102Z,85
2023-01-13T11:29:44.109Z,85
2023-01-13T11:32:44.109Z,84
2023-01-13T11:35:44.129Z,84
2023-01-13T11:38:44.119Z,84
2023-01-13T11:41:44.111Z,84
2023-01-13T11:44:44.118Z,83
2023-01-13T11:47:44.113Z,83
2023-01-13T11:50:44.162Z,83
2023-01-13T11:53:44.115Z,83
2023-01-13T11:56:44.161Z,83
2023-01-13T11:59:44.126Z,83
2023-01-13T12:02:44.124Z,83
2023-01-13T12:05:44.122Z,83
2023-01-13T12:08:44.149Z,82
2023-01-13T12:11:44.115Z,82
2023-01-13T12:14:44.125Z,82
2023-01-13T12:17:44.206Z,82
2023-01-13T12:20:44.122Z,82
2023-01-13T12:23:44.115Z,82
2023-01-13T12:29:44.126Z,81
2023-01-13T12:32:44.112Z,81
2023-01-13T12:35:44.121Z,81
2023-01-13T12:38:44.132Z,81
2023-01-13T12:41:44.131Z,81
2023-01-13T12:44:44.129Z,81
2023-01-13T12:47:44.122Z,81
2023-01-13T12:50:44.147Z,81
2023-01-13T12:53:44.124Z,81
2023-01-13T12:56:44.132Z,81
2023-01-13T12:59:44.130Z,81
2023-01-13T13:02:44.188Z,81
2023-01-13T13:05:44.139Z,81
2023-01-13T13:08:44.137Z,81
2023-01-13T13:11:44.115Z,80
2023-01-13T13:14:44.159Z,80
2023-01-13T13:17:44.135Z,80
2023-01-13T13:20:44.138Z,80
2023-01-13T13:23:44.169Z,80
2023-01-13T13:26:44.135Z,80
2023-01-13T13:29:44.136Z,80
2023-01-13T13:32:44.135Z,80
2023-01-13T13:35:44.125Z,80
2023-01-13T13:38:44.141Z,80
2023-01-13T13:41:44.142Z,80
2023-01-13T13:44:44.141Z,80
2023-01-13T13:47:44.134Z,80
2023-01-13T13:50:44.142Z,80
2023-01-13T13:53:44.132Z,80
2023-01-13T13:56:44.143Z,81
2023-01-13T13:59:44.135Z,81
2023-01-13T14:02:44.135Z,81
2023-01-13T14:05:44.142Z,81
2023-01-13T14:08:45.213Z,81
2023-01-13T14:11:44.093Z,82
2023-01-13T14:14:44.093Z,82
2023-01-13T14:17:44.089Z,82
2023-01-13T14:20:44.095Z,82
2023-01-13T14:23:44.088Z,82
2023-01-13T14:26:44.085Z,82
2023-01-13T14:29:44.101Z,83
2023-01-13T14:32:44.079Z,83
2023-01-13T14:35:44.092Z,83
2023-01-13T14:38:44.079Z,83
2023-01-13T14:41:44.067Z,83
2023-01-13T14:44:44.081Z,83
2023-01-13T14:47:44.070Z,83
2023-01-13T14:50:44.075Z,83
2023-01-13T14:53:44.073Z,83
2023-01-13T14:56:44.066Z,83
2023-01-13T14:59:44.082Z,83
2023-01-13T15:02:44.136Z,83
2023-01-13T15:08:44.072Z,83
2023-01-13T15:11:44.074Z,83
2023-01-13T15:14:44.081Z,83
2023-01-13T15:17:44.067Z,83
2023-01-13T15:20:44.090Z,83
2023-01-13T15:23:44.074Z,83
2023-01-13T15:26:44.069Z,83
2023-01-13T15:29:44.079Z,83
2023-01-13T15:32:44.076Z,83
2023-01-13T15:35:44.087Z,83
2023-01-13T15:38:44.125Z,83
2023-01-13T15:41:44.086Z,83
2023-01-13T15:44:44.091Z,83
2023-01-13T15:47:44.081Z,83
2023-01-13T15:50:44.095Z,83
2023-01-13T15:53:44.069Z,83
2023-01-13T15:56:44.072Z,83
2023-01-13T15:59:44.079Z,83
2023-01-13T16:02:44.112Z,83
2023-01-13T16:05:44.086Z,83
2023-01-13T16:08:44.075Z,83
2023-01-13T16:11:44.094Z,83
2023-01-13T16:14:44.106Z,83
2023-01-13T16:17:44.101Z,83
2023-01-13T16:20:44.109Z,83
2023-01-13T16:23:44.114Z,83
2023-01-13T16:26:44.120Z,83
2023-01-13T16:29:44.120Z,83
2023-01-13T16:32:44.137Z,83
2023-01-13T16:36:08.797Z,83
2023-01-13T16:38:44.139Z,83
2023-01-13T16:41:44.152Z,83
2023-01-13T16:44:44.168Z,83
2023-01-13T16:47:44.153Z,83
2023-01-13T16:50:44.169Z,83
2023-01-13T16:53:44.167Z,83
2023-01-13T16:56:44.169Z,82
2023-01-13T16:59:44.176Z,82
2023-01-13T17:02:44.170Z,82
2023-01-13T17:05:44.194Z,82
2023-01-13T17:08:44.178Z,82
2023-01-13T17:11:44.177Z,82
2023-01-13T17:14:44.189Z,82
2023-01-13T17:17:44.185Z,82
2023-01-13T17:20:44.182Z,82
2023-01-13T17:23:44.203Z,82
2023-01-13T17:26:44.260Z,82
2023-01-13T17:29:44.189Z,82
2023-01-13T17:32:44.182Z,82
2023-01-13T17:35:44.213Z,82
2023-01-13T17:38:44.204Z,82
2023-01-13T17:41:44.198Z,82
2023-01-13T17:44:44.203Z,82
2023-01-13T17:47:44.858Z,82
2023-01-13T17:50:44.212Z,82
2023-01-13T17:53:44.221Z,82
2023-01-13T17:56:44.199Z,82
2023-01-13T17:59:44.204Z,82
2023-01-13T18:02:44.245Z,82
2023-01-13T18:05:44.218Z,82
2023-01-13T18:08:44.203Z,82
2023-01-13T18:11:45.192Z,82
2023-01-13T18:14:44.206Z,82
2023-01-13T18:17:44.430Z,82
2023-01-13T18:20:44.228Z,82
2023-01-13T18:23:44.224Z,82
2023-01-13T18:26:44.238Z,82
2023-01-13T18:29:44.220Z,82
2023-01-13T18:32:44.222Z,82
2023-01-13T18:35:44.233Z,82
2023-01-13T18:38:44.213Z,82
2023-01-13T18:41:44.224Z,82
2023-01-13T18:44:44.228Z,82
2023-01-13T18:47:44.211Z,82
2023-01-13T18:50:44.223Z,82
2023-01-13T18:53:44.224Z,82
2023-01-13T18:56:44.224Z,82
2023-01-13T18:59:44.230Z,82
2023-01-13T19:02:44.245Z,82
2023-01-13T19:05:44.231Z,82
2023-01-13T19:08:44.215Z,82
2023-01-13T19:11:45.696Z,82
2023-01-13T19:14:44.231Z,82
2023-01-13T19:17:44.210Z,82
2023-01-13T19:20:44.235Z,82
2023-01-13T19:23:44.218Z,82
2023-01-13T19:26:44.220Z,82
2023-01-13T19:29:47.213Z,82
2023-01-13T19:32:44.229Z,82
2023-01-13T19:35:44.253Z,82
2023-01-13T19:38:44.241Z,82
2023-01-13T19:41:44.286Z,82
2023-01-13T19:44:44.238Z,82
2023-01-13T19:47:44.236Z,82
2023-01-13T19:50:44.248Z,82
2023-01-13T19:53:44.231Z,82
2023-01-13T19:56:44.229Z,82
2023-01-13T19:59:44.269Z,82
2023-01-13T20:02:44.257Z,82
2023-01-13T20:05:44.243Z,82
2023-01-13T20:08:44.236Z,82
2023-01-13T20:11:44.277Z,82
2023-01-13T20:14:44.253Z,82
2023-01-13T20:17:44.257Z,82
2023-01-13T20:20:44.305Z,82
2023-01-13T20:23:44.257Z,82
2023-01-13T20:26:44.250Z,82
2023-01-13T20:29:44.239Z,82
2023-01-13T20:32:44.257Z,82
2023-01-13T20:35:44.254Z,82
2023-01-13T20:38:44.265Z,82
2023-01-13T20:44:44.253Z,82
2023-01-13T20:47:44.263Z,82
2023-01-13T20:50:44.268Z,82
2023-01-13T20:53:44.269Z,82
2023-01-13T20:56:44.265Z,82
2023-01-13T20:59:44.265Z,82
2023-01-13T21:02:44.256Z,82
2023-01-13T21:05:44.266Z,82
2023-01-13T21:08:44.263Z,82
2023-01-13T21:11:44.270Z,82
2023-01-13T21:14:44.266Z,82
2023-01-13T21:17:44.269Z,82
2023-01-13T21:23:44.267Z,82
2023-01-13T21:26:44.268Z,82
2023-01-13T21:29:44.276Z,82
2023-01-13T21:32:44.400Z,82
2023-01-13T21:35:44.272Z,82
2023-01-13T21:38:44.270Z,82
2023-01-13T21:41:44.269Z,82
2023-01-13T21:44:44.269Z,82
2023-01-13T21:47:44.280Z,82
2023-01-13T21:50:44.289Z,82
2023-01-13T21:53:44.270Z,82
2023-01-13T21:56:44.273Z,82
2023-01-13T21:59:44.292Z,82
2023-01-13T22:02:44.427Z,82
2023-01-13T22:05:44.307Z,82
2023-01-13T22:08:44.303Z,82
2023-01-13T22:11:44.291Z,82
2023-01-13T22:14:44.287Z,82
2023-01-13T22:17:44.295Z,82
2023-01-13T22:20:44.297Z,82
2023-01-13T22:23:44.291Z,82
2023-01-13T22:26:44.307Z,82
2023-01-13T22:29:44.297Z,82
2023-01-13T22:32:44.294Z,82
2023-01-13T22:35:44.316Z,82
2023-01-13T22:38:44.297Z,82
2023-01-13T22:41:44.325Z,83
2023-01-13T22:44:44.309Z,83
2023-01-13T22:47:44.308Z,83
2023-01-13T22:50:44.315Z,83
2023-01-13T22:53:44.322Z,83
2023-01-13T22:56:44.318Z,83
2023-01-13T22:59:44.305Z,83
2023-01-13T23:02:44.310Z,83
2023-01-13T23:05:44.317Z,83
2023-01-13T23:08:44.338Z,83
2023-01-13T23:11:44.630Z,83
2023-01-13T23:14:44.316Z,83
2023-01-13T23:17:44.386Z,84
2023-01-13T23:20:44.315Z,84
2023-01-13T23:23:44.328Z,84
2023-01-13T23:26:44.404Z,84
2023-01-13T23:29:44.326Z,84
2023-01-13T23:32:44.318Z,84
2023-01-13T23:35:44.324Z,84
2023-01-13T23:38:44.331Z,84
2023-01-13T23:41:44.333Z,84
2023-01-13T23:44:44.338Z,84
2023-01-13T23:47:44.326Z,84
2023-01-13T23:50:44.330Z,84
2023-01-13T23:53:44.332Z,85
2023-01-13T23:56:44.331Z,85
2023-01-13T23:59:44.321Z,85
